sensor_id;sensor_type;location;lat;lon;timestamp;temperature;humidity
38239;DHT22;24035;48.900;9.188;2023-02-28T00:02:18;-1.80;99.90
38239;DHT22;24035;48.900;9.188;2023-02-28T00:04:44;-1.80;99.90
38239;DHT22;24035;48.900;9.188;2023-02-28T00:07:10;-1.90;99.90
38239;DHT22;24035;48.900;9.188;2023-02-28T00:09:35;-1.90;99.90
38239;DHT22;24035;48.900;9.188;2023-02-28T00:12:01;-2.00;99.90
38239;DHT22;24035;48.900;9.188;2023-02-28T00:14:38;-1.90;99.90
38239;DHT22;24035;48.900;9.188;2023-02-28T00:17:04;-2.00;99.90
38239;DHT22;24035;48.900;9.188;2023-02-28T00:19:30;-1.90;99.90
38239;DHT22;24035;48.900;9.188;2023-02-28T00:21:55;-1.90;99.90
38239;DHT22;24035;48.900;9.188;2023-02-28T00:24:21;-1.90;99.90
38239;DHT22;24035;48.900;9.188;2023-02-28T00:26:47;-1.90;99.90
38239;DHT22;24035;48.900;9.188;2023-02-28T00:29:12;-1.90;99.90
38239;DHT22;24035;48.900;9.188;2023-02-28T00:31:38;-1.90;99.90
38239;DHT22;24035;48.900;9.188;2023-02-28T00:34:03;-1.90;99.90
38239;DHT22;24035;48.900;9.188;2023-02-28T00:36:29;-1.80;99.90
38239;DHT22;24035;48.900;9.188;2023-02-28T00:38:55;-1.80;99.90
38239;DHT22;24035;48.900;9.188;2023-02-28T00:41:20;-1.90;99.90
38239;DHT22;24035;48.900;9.188;2023-02-28T00:43:46;-2.00;99.90
38239;DHT22;24035;48.900;9.188;2023-02-28T00:46:12;-1.90;99.90
38239;DHT22;24035;48.900;9.188;2023-02-28T00:48:37;-1.90;99.90
38239;DHT22;24035;48.900;9.188;2023-02-28T00:51:03;-1.90;99.90
38239;DHT22;24035;48.900;9.188;2023-02-28T00:53:29;-2.00;99.90
38239;DHT22;24035;48.900;9.188;2023-02-28T00:55:55;-2.00;1.00
38239;DHT22;24035;48.900;9.188;2023-02-28T00:58:21;-2.00;1.00
38239;DHT22;24035;48.900;9.188;2023-02-28T01:00:46;-2.10;1.00
38239;DHT22;24035;48.900;9.188;2023-02-28T01:03:15;-2.00;1.00
38239;DHT22;24035;48.900;9.188;2023-02-28T01:05:41;-2.00;1.00
38239;DHT22;24035;48.900;9.188;2023-02-28T01:08:07;-1.90;1.00
38239;DHT22;24035;48.900;9.188;2023-02-28T01:10:32;-2.00;1.00
38239;DHT22;24035;48.900;9.188;2023-02-28T01:12:59;-1.90;1.00
38239;DHT22;24035;48.900;9.188;2023-02-28T01:15:24;-1.90;1.00
38239;DHT22;24035;48.900;9.188;2023-02-28T01:17:50;-1.90;1.00
38239;DHT22;24035;48.900;9.188;2023-02-28T01:20:16;-1.90;1.00
38239;DHT22;24035;48.900;9.188;2023-02-28T01:22:41;-1.90;1.00
38239;DHT22;24035;48.900;9.188;2023-02-28T01:25:07;-1.90;1.00
38239;DHT22;24035;48.900;9.188;2023-02-28T01:27:33;-1.90;1.00
38239;DHT22;24035;48.900;9.188;2023-02-28T01:29:59;-2.00;1.00
38239;DHT22;24035;48.900;9.188;2023-02-28T01:32:25;-2.00;1.00
38239;DHT22;24035;48.900;9.188;2023-02-28T01:34:50;-2.00;1.00
38239;DHT22;24035;48.900;9.188;2023-02-28T01:37:16;-2.00;1.00
38239;DHT22;24035;48.900;9.188;2023-02-28T01:39:41;-2.20;1.00
38239;DHT22;24035;48.900;9.188;2023-02-28T01:42:09;-2.20;1.00
38239;DHT22;24035;48.900;9.188;2023-02-28T01:45:03;-2.20;1.00
38239;DHT22;24035;48.900;9.188;2023-02-28T01:47:39;-2.10;1.00
38239;DHT22;24035;48.900;9.188;2023-02-28T01:50:13;-2.10;1.00
38239;DHT22;24035;48.900;9.188;2023-02-28T01:52:40;-2.20;1.00
38239;DHT22;24035;48.900;9.188;2023-02-28T01:55:08;-2.20;1.00
38239;DHT22;24035;48.900;9.188;2023-02-28T01:57:40;-2.20;1.00
38239;DHT22;24035;48.900;9.188;2023-02-28T02:00:12;-2.30;1.00
38239;DHT22;24035;48.900;9.188;2023-02-28T02:02:42;-2.40;1.00
38239;DHT22;24035;48.900;9.188;2023-02-28T02:05:12;-2.50;1.00
38239;DHT22;24035;48.900;9.188;2023-02-28T02:07:41;-2.60;1.00
38239;DHT22;24035;48.900;9.188;2023-02-28T02:12:58;-2.60;1.00
38239;DHT22;24035;48.900;9.188;2023-02-28T02:15:37;-2.70;1.00
38239;DHT22;24035;48.900;9.188;2023-02-28T02:32:20;-2.70;1.00
38239;DHT22;24035;48.900;9.188;2023-02-28T02:34:58;-2.60;1.00
38239;DHT22;24035;48.900;9.188;2023-02-28T02:37:41;-2.60;1.00
38239;DHT22;24035;48.900;9.188;2023-02-28T02:40:20;-2.70;1.00
38239;DHT22;24035;48.900;9.188;2023-02-28T02:42:50;-2.70;1.00
38239;DHT22;24035;48.900;9.188;2023-02-28T02:47:55;-2.70;1.00
38239;DHT22;24035;48.900;9.188;2023-02-28T02:50:34;-2.70;1.00
38239;DHT22;24035;48.900;9.188;2023-02-28T02:53:02;-2.70;1.00
38239;DHT22;24035;48.900;9.188;2023-02-28T02:55:31;-2.60;1.00
38239;DHT22;24035;48.900;9.188;2023-02-28T02:58:01;-2.60;1.00
38239;DHT22;24035;48.900;9.188;2023-02-28T03:00:36;-2.60;1.00
38239;DHT22;24035;48.900;9.188;2023-02-28T03:03:04;-2.70;1.00
38239;DHT22;24035;48.900;9.188;2023-02-28T03:05:47;-2.60;37.10
38239;DHT22;24035;48.900;9.188;2023-02-28T03:08:13;-2.60;47.60
38239;DHT22;24035;48.900;9.188;2023-02-28T03:10:44;-2.60;79.60
38239;DHT22;24035;48.900;9.188;2023-02-28T03:22:11;-2.20;1.00
38239;DHT22;24035;48.900;9.188;2023-02-28T03:24:55;-2.20;1.00
38239;DHT22;24035;48.900;9.188;2023-02-28T03:27:27;-2.20;1.00
38239;DHT22;24035;48.900;9.188;2023-02-28T03:35:24;-2.10;1.00
38239;DHT22;24035;48.900;9.188;2023-02-28T03:38:03;-2.10;1.00
38239;DHT22;24035;48.900;9.188;2023-02-28T03:40:32;-2.10;1.00
38239;DHT22;24035;48.900;9.188;2023-02-28T03:43:04;-2.00;1.00
38239;DHT22;24035;48.900;9.188;2023-02-28T03:45:36;-2.00;1.00
38239;DHT22;24035;48.900;9.188;2023-02-28T03:48:21;-1.80;1.00
38239;DHT22;24035;48.900;9.188;2023-02-28T03:50:53;-1.70;1.00
38239;DHT22;24035;48.900;9.188;2023-02-28T03:53:33;-1.60;1.00
38239;DHT22;24035;48.900;9.188;2023-02-28T03:59:02;-1.50;1.00
38239;DHT22;24035;48.900;9.188;2023-02-28T04:01:41;-1.50;1.00
38239;DHT22;24035;48.900;9.188;2023-02-28T04:04:12;-1.40;1.00
38239;DHT22;24035;48.900;9.188;2023-02-28T04:06:39;-1.40;1.00
38239;DHT22;24035;48.900;9.188;2023-02-28T04:09:06;-1.40;1.00
38239;DHT22;24035;48.900;9.188;2023-02-28T04:11:35;-1.40;1.00
38239;DHT22;24035;48.900;9.188;2023-02-28T04:14:05;-1.30;1.00
38239;DHT22;24035;48.900;9.188;2023-02-28T04:16:33;-1.30;1.00
38239;DHT22;24035;48.900;9.188;2023-02-28T04:18:59;-1.30;1.00
38239;DHT22;24035;48.900;9.188;2023-02-28T04:21:33;-1.30;1.00
38239;DHT22;24035;48.900;9.188;2023-02-28T04:23:58;-1.30;1.00
38239;DHT22;24035;48.900;9.188;2023-02-28T04:26:36;-1.20;1.00
38239;DHT22;24035;48.900;9.188;2023-02-28T04:29:03;-1.20;1.00
38239;DHT22;24035;48.900;9.188;2023-02-28T04:31:30;-1.20;1.00
38239;DHT22;24035;48.900;9.188;2023-02-28T04:33:56;-1.20;1.00
38239;DHT22;24035;48.900;9.188;2023-02-28T04:36:21;-1.20;1.00
38239;DHT22;24035;48.900;9.188;2023-02-28T04:38:49;-1.20;1.00
38239;DHT22;24035;48.900;9.188;2023-02-28T04:41:15;-1.20;1.00
38239;DHT22;24035;48.900;9.188;2023-02-28T04:43:41;-1.30;1.00
38239;DHT22;24035;48.900;9.188;2023-02-28T04:46:06;-1.20;1.00
38239;DHT22;24035;48.900;9.188;2023-02-28T04:48:35;-1.20;1.00
38239;DHT22;24035;48.900;9.188;2023-02-28T04:51:09;-1.20;1.00
38239;DHT22;24035;48.900;9.188;2023-02-28T04:53:35;-1.20;1.00
38239;DHT22;24035;48.900;9.188;2023-02-28T04:56:01;-1.30;1.00
38239;DHT22;24035;48.900;9.188;2023-02-28T04:58:27;-1.20;1.00
38239;DHT22;24035;48.900;9.188;2023-02-28T05:00:54;-1.20;1.00
38239;DHT22;24035;48.900;9.188;2023-02-28T05:03:20;-1.20;1.00
38239;DHT22;24035;48.900;9.188;2023-02-28T05:05:47;-1.20;1.00
38239;DHT22;24035;48.900;9.188;2023-02-28T05:08:13;-1.20;1.00
38239;DHT22;24035;48.900;9.188;2023-02-28T05:10:39;-1.10;1.00
38239;DHT22;24035;48.900;9.188;2023-02-28T05:13:05;-1.10;1.00
38239;DHT22;24035;48.900;9.188;2023-02-28T05:15:30;-1.10;1.00
38239;DHT22;24035;48.900;9.188;2023-02-28T05:17:56;-1.10;1.00
38239;DHT22;24035;48.900;9.188;2023-02-28T05:20:22;-1.10;1.00
38239;DHT22;24035;48.900;9.188;2023-02-28T05:22:47;-1.10;1.00
38239;DHT22;24035;48.900;9.188;2023-02-28T05:25:19;-1.10;1.00
38239;DHT22;24035;48.900;9.188;2023-02-28T05:27:45;-1.10;1.00
38239;DHT22;24035;48.900;9.188;2023-02-28T05:30:11;-1.10;1.00
38239;DHT22;24035;48.900;9.188;2023-02-28T05:32:40;-1.10;1.00
38239;DHT22;24035;48.900;9.188;2023-02-28T05:35:12;-1.00;1.00
38239;DHT22;24035;48.900;9.188;2023-02-28T05:37:38;-1.00;1.00
38239;DHT22;24035;48.900;9.188;2023-02-28T05:40:06;-0.90;1.00
38239;DHT22;24035;48.900;9.188;2023-02-28T05:42:33;-0.90;1.00
38239;DHT22;24035;48.900;9.188;2023-02-28T05:44:58;-0.90;1.00
38239;DHT22;24035;48.900;9.188;2023-02-28T05:47:24;-0.90;1.00
38239;DHT22;24035;48.900;9.188;2023-02-28T05:49:50;-1.00;1.00
38239;DHT22;24035;48.900;9.188;2023-02-28T05:52:16;-0.90;1.00
38239;DHT22;24035;48.900;9.188;2023-02-28T05:54:42;-0.90;1.00
38239;DHT22;24035;48.900;9.188;2023-02-28T05:57:08;-0.90;1.00
38239;DHT22;24035;48.900;9.188;2023-02-28T05:59:34;-1.00;1.00
38239;DHT22;24035;48.900;9.188;2023-02-28T06:02:00;-1.00;1.00
38239;DHT22;24035;48.900;9.188;2023-02-28T06:04:25;-1.00;1.00
38239;DHT22;24035;48.900;9.188;2023-02-28T06:06:51;-0.90;1.00
38239;DHT22;24035;48.900;9.188;2023-02-28T06:09:17;-0.90;1.00
38239;DHT22;24035;48.900;9.188;2023-02-28T06:11:44;-0.90;1.00
38239;DHT22;24035;48.900;9.188;2023-02-28T06:14:15;-0.90;1.00
38239;DHT22;24035;48.900;9.188;2023-02-28T06:16:42;-0.80;1.00
38239;DHT22;24035;48.900;9.188;2023-02-28T06:19:09;-0.90;1.00
38239;DHT22;24035;48.900;9.188;2023-02-28T06:21:35;-0.90;1.00
38239;DHT22;24035;48.900;9.188;2023-02-28T06:24:00;-0.90;1.00
38239;DHT22;24035;48.900;9.188;2023-02-28T06:26:26;-0.90;1.00
38239;DHT22;24035;48.900;9.188;2023-02-28T06:28:52;-0.90;1.00
38239;DHT22;24035;48.900;9.188;2023-02-28T06:31:18;-0.90;1.00
38239;DHT22;24035;48.900;9.188;2023-02-28T06:33:45;-0.80;1.00
38239;DHT22;24035;48.900;9.188;2023-02-28T06:36:12;-0.80;1.00
38239;DHT22;24035;48.900;9.188;2023-02-28T06:38:39;-0.80;1.00
38239;DHT22;24035;48.900;9.188;2023-02-28T06:41:05;-0.80;1.00
38239;DHT22;24035;48.900;9.188;2023-02-28T06:43:35;-0.80;1.00
38239;DHT22;24035;48.900;9.188;2023-02-28T06:46:03;-0.80;1.00
38239;DHT22;24035;48.900;9.188;2023-02-28T06:48:29;-0.70;1.00
38239;DHT22;24035;48.900;9.188;2023-02-28T06:51:21;-0.70;1.00
38239;DHT22;24035;48.900;9.188;2023-02-28T06:53:48;-0.70;1.00
38239;DHT22;24035;48.900;9.188;2023-02-28T06:56:15;-0.50;1.00
38239;DHT22;24035;48.900;9.188;2023-02-28T06:58:41;-0.50;1.00
38239;DHT22;24035;48.900;9.188;2023-02-28T07:01:08;-0.40;1.00
38239;DHT22;24035;48.900;9.188;2023-02-28T07:03:35;-0.40;1.00
38239;DHT22;24035;48.900;9.188;2023-02-28T07:06:01;-0.30;1.00
38239;DHT22;24035;48.900;9.188;2023-02-28T07:08:28;-0.40;1.00
38239;DHT22;24035;48.900;9.188;2023-02-28T07:10:55;-0.30;1.00
38239;DHT22;24035;48.900;9.188;2023-02-28T07:13:21;-0.30;1.00
38239;DHT22;24035;48.900;9.188;2023-02-28T07:15:58;-0.50;1.00
38239;DHT22;24035;48.900;9.188;2023-02-28T07:18:24;-0.50;1.00
38239;DHT22;24035;48.900;9.188;2023-02-28T07:20:50;-0.50;1.00
38239;DHT22;24035;48.900;9.188;2023-02-28T07:23:16;-0.50;1.00
38239;DHT22;24035;48.900;9.188;2023-02-28T07:25:42;-0.40;1.00
38239;DHT22;24035;48.900;9.188;2023-02-28T07:28:07;-0.40;1.00
38239;DHT22;24035;48.900;9.188;2023-02-28T07:30:33;-0.30;1.00
38239;DHT22;24035;48.900;9.188;2023-02-28T07:32:59;-0.30;1.00
38239;DHT22;24035;48.900;9.188;2023-02-28T07:35:24;-0.30;1.00
38239;DHT22;24035;48.900;9.188;2023-02-28T07:37:50;-0.30;1.00
38239;DHT22;24035;48.900;9.188;2023-02-28T07:40:16;-0.30;99.90
38239;DHT22;24035;48.900;9.188;2023-02-28T07:42:43;-0.30;1.00
38239;DHT22;24035;48.900;9.188;2023-02-28T07:45:10;-0.20;1.00
38239;DHT22;24035;48.900;9.188;2023-02-28T07:47:41;-0.20;99.90
38239;DHT22;24035;48.900;9.188;2023-02-28T07:50:09;-0.30;99.90
38239;DHT22;24035;48.900;9.188;2023-02-28T07:52:40;-0.30;99.90
38239;DHT22;24035;48.900;9.188;2023-02-28T07:55:08;-0.30;99.90
38239;DHT22;24035;48.900;9.188;2023-02-28T07:57:34;-0.30;1.00
38239;DHT22;24035;48.900;9.188;2023-02-28T08:00:00;-0.30;99.90
38239;DHT22;24035;48.900;9.188;2023-02-28T08:02:26;-0.20;99.90
38239;DHT22;24035;48.900;9.188;2023-02-28T08:04:51;-0.30;99.90
38239;DHT22;24035;48.900;9.188;2023-02-28T08:07:17;-0.20;99.90
38239;DHT22;24035;48.900;9.188;2023-02-28T08:09:44;0.10;99.90
38239;DHT22;24035;48.900;9.188;2023-02-28T08:12:10;0.10;99.90
38239;DHT22;24035;48.900;9.188;2023-02-28T08:14:36;0.20;99.90
38239;DHT22;24035;48.900;9.188;2023-02-28T08:17:01;0.10;99.90
38239;DHT22;24035;48.900;9.188;2023-02-28T08:19:28;0.10;99.90
38239;DHT22;24035;48.900;9.188;2023-02-28T08:21:54;0.10;99.90
38239;DHT22;24035;48.900;9.188;2023-02-28T08:24:19;0.10;99.90
38239;DHT22;24035;48.900;9.188;2023-02-28T08:26:45;0.20;99.90
38239;DHT22;24035;48.900;9.188;2023-02-28T08:29:11;0.30;99.90
38239;DHT22;24035;48.900;9.188;2023-02-28T08:31:36;0.30;99.90
38239;DHT22;24035;48.900;9.188;2023-02-28T08:34:20;0.40;99.90
38239;DHT22;24035;48.900;9.188;2023-02-28T08:36:46;0.50;99.90
38239;DHT22;24035;48.900;9.188;2023-02-28T08:39:12;0.50;99.90
38239;DHT22;24035;48.900;9.188;2023-02-28T08:41:38;0.70;99.90
38239;DHT22;24035;48.900;9.188;2023-02-28T08:44:04;0.80;99.90
38239;DHT22;24035;48.900;9.188;2023-02-28T08:46:29;0.80;99.90
38239;DHT22;24035;48.900;9.188;2023-02-28T08:48:56;0.90;99.90
38239;DHT22;24035;48.900;9.188;2023-02-28T08:51:26;0.90;99.90
38239;DHT22;24035;48.900;9.188;2023-02-28T08:53:58;0.90;99.90
38239;DHT22;24035;48.900;9.188;2023-02-28T08:56:26;1.00;99.90
38239;DHT22;24035;48.900;9.188;2023-02-28T08:58:54;1.10;99.90
38239;DHT22;24035;48.900;9.188;2023-02-28T09:01:28;1.10;99.90
38239;DHT22;24035;48.900;9.188;2023-02-28T09:03:54;1.20;99.90
38239;DHT22;24035;48.900;9.188;2023-02-28T09:06:23;1.20;99.90
38239;DHT22;24035;48.900;9.188;2023-02-28T09:08:49;1.10;99.90
38239;DHT22;24035;48.900;9.188;2023-02-28T09:11:15;1.10;99.90
38239;DHT22;24035;48.900;9.188;2023-02-28T09:13:41;1.30;99.90
38239;DHT22;24035;48.900;9.188;2023-02-28T09:16:10;1.50;99.90
38239;DHT22;24035;48.900;9.188;2023-02-28T09:18:39;1.50;99.90
38239;DHT22;24035;48.900;9.188;2023-02-28T09:21:09;1.70;99.90
38239;DHT22;24035;48.900;9.188;2023-02-28T09:23:35;1.80;99.90
38239;DHT22;24035;48.900;9.188;2023-02-28T09:26:04;2.00;99.90
38239;DHT22;24035;48.900;9.188;2023-02-28T09:28:29;1.80;99.90
38239;DHT22;24035;48.900;9.188;2023-02-28T09:30:55;1.90;99.90
38239;DHT22;24035;48.900;9.188;2023-02-28T09:33:23;1.80;99.90
38239;DHT22;24035;48.900;9.188;2023-02-28T09:35:49;1.90;99.90
38239;DHT22;24035;48.900;9.188;2023-02-28T09:38:15;2.00;99.90
38239;DHT22;24035;48.900;9.188;2023-02-28T09:43:14;2.10;99.90
38239;DHT22;24035;48.900;9.188;2023-02-28T09:45:43;2.20;99.90
38239;DHT22;24035;48.900;9.188;2023-02-28T09:48:21;2.20;99.90
38239;DHT22;24035;48.900;9.188;2023-02-28T09:50:51;2.30;99.90
38239;DHT22;24035;48.900;9.188;2023-02-28T09:53:28;2.40;99.90
38239;DHT22;24035;48.900;9.188;2023-02-28T09:56:09;2.30;99.90
38239;DHT22;24035;48.900;9.188;2023-02-28T09:58:51;2.20;99.90
38239;DHT22;24035;48.900;9.188;2023-02-28T10:03:56;2.40;99.90
38239;DHT22;24035;48.900;9.188;2023-02-28T10:06:30;2.60;99.90
38239;DHT22;24035;48.900;9.188;2023-02-28T10:09:19;2.60;99.90
38239;DHT22;24035;48.900;9.188;2023-02-28T10:11:49;2.60;99.90
38239;DHT22;24035;48.900;9.188;2023-02-28T10:14:19;2.60;99.90
38239;DHT22;24035;48.900;9.188;2023-02-28T10:16:55;2.60;99.90
38239;DHT22;24035;48.900;9.188;2023-02-28T10:19:38;2.80;99.90
38239;DHT22;24035;48.900;9.188;2023-02-28T10:22:17;2.90;99.90
38239;DHT22;24035;48.900;9.188;2023-02-28T10:24:46;3.00;99.90
38239;DHT22;24035;48.900;9.188;2023-02-28T10:27:17;3.10;99.90
38239;DHT22;24035;48.900;9.188;2023-02-28T10:29:49;3.40;99.90
38239;DHT22;24035;48.900;9.188;2023-02-28T10:32:17;3.50;99.90
38239;DHT22;24035;48.900;9.188;2023-02-28T10:34:43;3.50;99.90
38239;DHT22;24035;48.900;9.188;2023-02-28T10:37:11;3.60;99.90
38239;DHT22;24035;48.900;9.188;2023-02-28T10:39:42;3.70;99.90
38239;DHT22;24035;48.900;9.188;2023-02-28T10:42:29;3.70;99.90
38239;DHT22;24035;48.900;9.188;2023-02-28T10:45:15;3.70;99.90
38239;DHT22;24035;48.900;9.188;2023-02-28T10:47:59;3.80;99.90
38239;DHT22;24035;48.900;9.188;2023-02-28T10:50:36;4.10;99.90
38239;DHT22;24035;48.900;9.188;2023-02-28T10:56:16;3.90;99.90
38239;DHT22;24035;48.900;9.188;2023-02-28T11:01:19;4.10;99.90
38239;DHT22;24035;48.900;9.188;2023-02-28T11:03:46;4.10;99.90
38239;DHT22;24035;48.900;9.188;2023-02-28T11:06:20;3.90;99.90
38239;DHT22;24035;48.900;9.188;2023-02-28T11:11:14;3.70;99.90
38239;DHT22;24035;48.900;9.188;2023-02-28T11:13:43;3.60;99.90
38239;DHT22;24035;48.900;9.188;2023-02-28T11:16:11;3.70;99.90
38239;DHT22;24035;48.900;9.188;2023-02-28T11:21:07;3.60;99.90
38239;DHT22;24035;48.900;9.188;2023-02-28T11:23:36;3.50;99.90
38239;DHT22;24035;48.900;9.188;2023-02-28T11:26:03;3.40;99.90
38239;DHT22;24035;48.900;9.188;2023-02-28T11:28:40;3.20;99.90
38239;DHT22;24035;48.900;9.188;2023-02-28T11:31:14;3.20;99.90
38239;DHT22;24035;48.900;9.188;2023-02-28T11:36:15;3.30;99.90
38239;DHT22;24035;48.900;9.188;2023-02-28T11:38:42;3.40;99.90
38239;DHT22;24035;48.900;9.188;2023-02-28T11:41:21;3.50;99.90
38239;DHT22;24035;48.900;9.188;2023-02-28T11:44:20;3.60;99.90
38239;DHT22;24035;48.900;9.188;2023-02-28T11:46:54;3.80;99.90
38239;DHT22;24035;48.900;9.188;2023-02-28T11:49:55;4.00;99.90
38239;DHT22;24035;48.900;9.188;2023-02-28T12:03:20;4.20;99.90
38239;DHT22;24035;48.900;9.188;2023-02-28T12:06:12;4.30;99.90
38239;DHT22;24035;48.900;9.188;2023-02-28T12:11:53;4.80;99.90
38239;DHT22;24035;48.900;9.188;2023-02-28T12:17:13;4.90;99.90
38239;DHT22;24035;48.900;9.188;2023-02-28T12:19:44;4.80;99.90
38239;DHT22;24035;48.900;9.188;2023-02-28T12:28:09;5.00;99.90
38239;DHT22;24035;48.900;9.188;2023-02-28T12:30:41;5.00;99.90
38239;DHT22;24035;48.900;9.188;2023-02-28T12:33:12;4.90;99.90
38239;DHT22;24035;48.900;9.188;2023-02-28T12:35:59;5.00;99.90
38239;DHT22;24035;48.900;9.188;2023-02-28T12:38:31;4.90;99.90
38239;DHT22;24035;48.900;9.188;2023-02-28T12:41:00;4.90;99.90
38239;DHT22;24035;48.900;9.188;2023-02-28T12:43:33;4.90;99.90
38239;DHT22;24035;48.900;9.188;2023-02-28T12:46:04;4.90;99.90
38239;DHT22;24035;48.900;9.188;2023-02-28T12:48:37;5.10;99.90
38239;DHT22;24035;48.900;9.188;2023-02-28T12:51:06;5.20;99.90
38239;DHT22;24035;48.900;9.188;2023-02-28T12:58:39;5.00;99.90
38239;DHT22;24035;48.900;9.188;2023-02-28T13:09:21;4.80;99.90
38239;DHT22;24035;48.900;9.188;2023-02-28T13:11:54;4.80;99.90
38239;DHT22;24035;48.900;9.188;2023-02-28T13:14:30;4.90;99.90
38239;DHT22;24035;48.900;9.188;2023-02-28T13:19:35;5.00;99.90
38239;DHT22;24035;48.900;9.188;2023-02-28T13:22:02;5.00;99.90
38239;DHT22;24035;48.900;9.188;2023-02-28T13:24:44;5.00;99.90
38239;DHT22;24035;48.900;9.188;2023-02-28T13:27:20;5.10;99.90
38239;DHT22;24035;48.900;9.188;2023-02-28T13:29:51;5.10;99.90
38239;DHT22;24035;48.900;9.188;2023-02-28T13:32:29;5.00;99.90
38239;DHT22;24035;48.900;9.188;2023-02-28T13:42:32;5.20;99.90
38239;DHT22;24035;48.900;9.188;2023-02-28T13:47:42;5.30;99.90
38239;DHT22;24035;48.900;9.188;2023-02-28T14:01:35;5.40;99.90
38239;DHT22;24035;48.900;9.188;2023-02-28T14:07:09;5.50;99.90
38239;DHT22;24035;48.900;9.188;2023-02-28T14:09:46;5.50;99.90
38239;DHT22;24035;48.900;9.188;2023-02-28T14:18:18;5.30;99.90
38239;DHT22;24035;48.900;9.188;2023-02-28T14:20:47;5.40;99.90
38239;DHT22;24035;48.900;9.188;2023-02-28T14:26:10;5.50;99.90
38239;DHT22;24035;48.900;9.188;2023-02-28T14:31:49;5.20;99.90
38239;DHT22;24035;48.900;9.188;2023-02-28T14:37:46;5.40;99.90
38239;DHT22;24035;48.900;9.188;2023-02-28T14:40:34;5.40;99.90
38239;DHT22;24035;48.900;9.188;2023-02-28T14:43:28;5.40;99.90
38239;DHT22;24035;48.900;9.188;2023-02-28T14:46:14;5.40;99.90
38239;DHT22;24035;48.900;9.188;2023-02-28T14:49:01;5.40;99.90
38239;DHT22;24035;48.900;9.188;2023-02-28T14:51:50;5.40;99.90
38239;DHT22;24035;48.900;9.188;2023-02-28T14:54:56;5.40;99.90
38239;DHT22;24035;48.900;9.188;2023-02-28T14:57:57;5.30;99.90
38239;DHT22;24035;48.900;9.188;2023-02-28T15:00:48;5.40;99.90
38239;DHT22;24035;48.900;9.188;2023-02-28T15:03:37;5.40;99.90
38239;DHT22;24035;48.900;9.188;2023-02-28T15:06:24;5.40;99.90
38239;DHT22;24035;48.900;9.188;2023-02-28T15:09:18;5.30;99.90
38239;DHT22;24035;48.900;9.188;2023-02-28T15:12:04;5.30;99.90
38239;DHT22;24035;48.900;9.188;2023-02-28T15:14:50;5.40;99.90
38239;DHT22;24035;48.900;9.188;2023-02-28T15:17:36;5.30;99.90
38239;DHT22;24035;48.900;9.188;2023-02-28T15:20:22;5.20;99.90
38239;DHT22;24035;48.900;9.188;2023-02-28T15:23:10;5.20;99.90
38239;DHT22;24035;48.900;9.188;2023-02-28T15:25:57;5.20;99.90
38239;DHT22;24035;48.900;9.188;2023-02-28T15:28:44;5.20;99.90
38239;DHT22;24035;48.900;9.188;2023-02-28T15:31:43;5.20;99.90
38239;DHT22;24035;48.900;9.188;2023-02-28T15:34:41;5.20;99.90
38239;DHT22;24035;48.900;9.188;2023-02-28T15:40:30;5.20;99.90
38239;DHT22;24035;48.900;9.188;2023-02-28T15:46:19;5.20;99.90
38239;DHT22;24035;48.900;9.188;2023-02-28T15:49:12;5.10;99.90
38239;DHT22;24035;48.900;9.188;2023-02-28T15:52:03;5.10;99.90
38239;DHT22;24035;48.900;9.188;2023-02-28T15:54:49;4.90;99.90
38239;DHT22;24035;48.900;9.188;2023-02-28T15:57:35;4.80;99.90
38239;DHT22;24035;48.900;9.188;2023-02-28T16:00:24;4.70;99.90
38239;DHT22;24035;48.900;9.188;2023-02-28T16:03:27;4.60;99.90
38239;DHT22;24035;48.900;9.188;2023-02-28T16:06:53;4.60;99.90
38239;DHT22;24035;48.900;9.188;2023-02-28T16:09:42;4.60;99.90
38239;DHT22;24035;48.900;9.188;2023-02-28T16:12:30;4.60;99.90
38239;DHT22;24035;48.900;9.188;2023-02-28T16:15:22;4.60;99.90
38239;DHT22;24035;48.900;9.188;2023-02-28T16:18:11;4.50;99.90
38239;DHT22;24035;48.900;9.188;2023-02-28T16:20:57;4.40;99.90
38239;DHT22;24035;48.900;9.188;2023-02-28T16:23:43;4.40;99.90
38239;DHT22;24035;48.900;9.188;2023-02-28T16:26:29;4.30;99.90
38239;DHT22;24035;48.900;9.188;2023-02-28T16:29:23;4.20;99.90
38239;DHT22;24035;48.900;9.188;2023-02-28T16:32:14;4.20;99.90
38239;DHT22;24035;48.900;9.188;2023-02-28T16:35:00;4.20;99.90
38239;DHT22;24035;48.900;9.188;2023-02-28T16:37:46;4.10;99.90
38239;DHT22;24035;48.900;9.188;2023-02-28T16:40:35;3.90;99.90
38239;DHT22;24035;48.900;9.188;2023-02-28T16:43:23;3.90;99.90
38239;DHT22;24035;48.900;9.188;2023-02-28T16:46:11;3.90;99.90
38239;DHT22;24035;48.900;9.188;2023-02-28T16:48:58;3.90;99.90
38239;DHT22;24035;48.900;9.188;2023-02-28T16:51:44;3.80;99.90
38239;DHT22;24035;48.900;9.188;2023-02-28T16:54:30;3.70;99.90
38239;DHT22;24035;48.900;9.188;2023-02-28T16:57:21;3.70;99.90
38239;DHT22;24035;48.900;9.188;2023-02-28T17:00:13;3.60;99.90
38239;DHT22;24035;48.900;9.188;2023-02-28T17:02:59;3.50;99.90
38239;DHT22;24035;48.900;9.188;2023-02-28T17:05:45;3.50;99.90
38239;DHT22;24035;48.900;9.188;2023-02-28T17:08:31;3.30;99.90
38239;DHT22;24035;48.900;9.188;2023-02-28T17:11:18;3.10;99.90
38239;DHT22;24035;48.900;9.188;2023-02-28T17:14:04;2.90;99.90
38239;DHT22;24035;48.900;9.188;2023-02-28T17:16:50;2.90;99.90
38239;DHT22;24035;48.900;9.188;2023-02-28T17:19:36;2.80;99.90
38239;DHT22;24035;48.900;9.188;2023-02-28T17:22:23;2.80;99.90
38239;DHT22;24035;48.900;9.188;2023-02-28T17:25:11;2.80;99.90
38239;DHT22;24035;48.900;9.188;2023-02-28T17:27:57;2.70;99.90
38239;DHT22;24035;48.900;9.188;2023-02-28T17:30:43;2.70;99.90
38239;DHT22;24035;48.900;9.188;2023-02-28T17:33:32;2.50;99.90
38239;DHT22;24035;48.900;9.188;2023-02-28T17:36:26;2.50;99.90
38239;DHT22;24035;48.900;9.188;2023-02-28T17:39:12;2.50;99.90
38239;DHT22;24035;48.900;9.188;2023-02-28T17:42:07;2.40;99.90
38239;DHT22;24035;48.900;9.188;2023-02-28T17:44:53;2.20;99.90
38239;DHT22;24035;48.900;9.188;2023-02-28T17:47:40;2.20;99.90
38239;DHT22;24035;48.900;9.188;2023-02-28T17:50:27;2.20;99.90
38239;DHT22;24035;48.900;9.188;2023-02-28T17:53:13;2.00;99.90
38239;DHT22;24035;48.900;9.188;2023-02-28T17:55:59;2.00;99.90
38239;DHT22;24035;48.900;9.188;2023-02-28T17:58:45;2.00;99.90
38239;DHT22;24035;48.900;9.188;2023-02-28T18:01:31;1.80;99.90
38239;DHT22;24035;48.900;9.188;2023-02-28T18:04:17;1.70;99.90
38239;DHT22;24035;48.900;9.188;2023-02-28T18:07:03;1.60;99.90
38239;DHT22;24035;48.900;9.188;2023-02-28T18:09:49;1.50;99.90
38239;DHT22;24035;48.900;9.188;2023-02-28T18:12:35;1.40;99.90
38239;DHT22;24035;48.900;9.188;2023-02-28T18:15:21;1.30;99.90
38239;DHT22;24035;48.900;9.188;2023-02-28T18:18:07;1.20;99.90
38239;DHT22;24035;48.900;9.188;2023-02-28T18:20:53;1.10;99.90
38239;DHT22;24035;48.900;9.188;2023-02-28T18:23:39;1.00;99.90
38239;DHT22;24035;48.900;9.188;2023-02-28T18:26:32;1.10;99.90
38239;DHT22;24035;48.900;9.188;2023-02-28T18:29:23;1.00;99.90
38239;DHT22;24035;48.900;9.188;2023-02-28T18:32:09;0.90;99.90
38239;DHT22;24035;48.900;9.188;2023-02-28T18:34:56;0.70;99.90
38239;DHT22;24035;48.900;9.188;2023-02-28T18:37:41;0.60;99.90
38239;DHT22;24035;48.900;9.188;2023-02-28T18:40:27;0.50;99.90
38239;DHT22;24035;48.900;9.188;2023-02-28T18:43:13;0.40;99.90
38239;DHT22;24035;48.900;9.188;2023-02-28T18:46:07;0.30;99.90
38239;DHT22;24035;48.900;9.188;2023-02-28T18:48:53;0.20;1.00